Time;durP1;ratioP1;P1;durP2;ratioP2;P2;SDS_P1;SDS_P2;PMS_P1;PMS_P2;Temp;Humidity;BMP_temperature;BMP_pressure;BME280_temperature;BME280_humidity;BME280_pressure;Samples;Min_cycle;Max_cycle;Signal;HPM_P1;HPM_P2
2023/06/08 00:01:52;;;;;;;27.43;15.30;;;12.50;1.00;;;;;;5071064;28;20728;-72
2023/06/08 00:04:17;;;;;;;26.70;15.03;;;12.50;1.00;;;;;;5071055;28;20770;-68
2023/06/08 00:06:44;;;;;;;29.27;14.97;;;12.50;1.00;;;;;;5072507;28;20412;-68
2023/06/08 00:09:10;;;;;;;27.60;14.67;;;12.60;1.00;;;;;;5075232;28;20681;-72
2023/06/08 00:11:37;;;;;;;24.13;12.93;;;12.60;1.00;;;;;;5074347;28;20466;-69
2023/06/08 00:14:03;;;;;;;21.43;13.00;;;12.60;1.00;;;;;;5067757;28;20427;-69
2023/06/08 00:16:29;;;;;;;21.90;14.13;;;12.60;1.00;;;;;;5056086;28;20929;-68
2023/06/08 00:18:56;;;;;;;24.00;13.40;;;12.50;1.00;;;;;;5055504;28;20242;-70
2023/06/08 00:21:26;;;;;;;24.67;13.20;;;12.40;1.00;;;;;;5074947;28;20405;-69
2023/06/08 00:23:52;;;;;;;30.63;15.50;;;12.40;1.00;;;;;;5062177;28;20475;-72
2023/06/08 00:26:18;;;;;;;27.13;14.50;;;12.40;1.00;;;;;;5055640;28;20411;-69
2023/06/08 00:28:47;;;;;;;34.23;16.70;;;12.20;1.00;;;;;;5055799;28;20856;-69
2023/06/08 00:31:15;;;;;;;25.47;14.50;;;12.20;1.00;;;;;;5063147;28;20174;-71
2023/06/08 00:33:41;;;;;;;24.50;14.60;;;12.10;1.00;;;;;;5075757;28;20417;-72
2023/06/08 00:36:07;;;;;;;28.03;17.20;;;11.90;1.00;;;;;;5074838;28;20424;-73
2023/06/08 00:38:34;;;;;;;25.30;13.17;;;11.90;1.00;;;;;;5075106;28;20374;-72
2023/06/08 00:41:00;;;;;;;35.03;13.30;;;11.90;1.00;;;;;;5074420;28;20473;-68
2023/06/08 00:43:26;;;;;;;32.37;12.67;;;11.80;1.00;;;;;;5075430;28;20444;-72
2023/06/08 00:45:55;;;;;;;19.67;12.73;;;11.70;1.00;;;;;;5075644;28;20397;-70
2023/06/08 00:48:21;;;;;;;20.00;12.60;;;11.70;1.00;;;;;;5075623;28;20166;-73
2023/06/08 00:50:47;;;;;;;25.20;13.80;;;11.70;1.00;;;;;;5072820;28;20433;-74
2023/06/08 00:53:14;;;;;;;24.43;13.27;;;11.80;1.00;;;;;;5074359;28;20467;-69
2023/06/08 00:55:43;;;;;;;24.70;12.07;;;11.90;1.00;;;;;;5074508;28;20406;-69
2023/06/08 00:58:13;;;;;;;21.47;10.00;;;12.00;1.00;;;;;;5075336;28;20852;-69
2023/06/08 01:00:44;;;;;;;23.33;11.67;;;11.80;1.00;;;;;;5074280;28;20383;-69
2023/06/08 01:03:10;;;;;;;18.30;11.57;;;11.60;1.00;;;;;;5075157;28;20914;-68
2023/06/08 01:05:38;;;;;;;20.23;12.53;;;11.60;1.00;;;;;;5073975;28;20418;-68
2023/06/08 01:08:32;;;;;;;21.23;11.37;;;11.60;1.00;;;;;;5075177;28;20367;-68
2023/06/08 01:11:19;;;;;;;16.93;9.97;;;11.60;1.00;;;;;;5072923;28;20420;-73
2023/06/08 01:14:17;;;;;;;15.50;10.60;;;11.70;1.00;;;;;;5067293;28;20478;-70
2023/06/08 01:16:50;;;;;;;14.90;11.40;;;11.70;1.00;;;;;;5054878;28;20433;-69
2023/06/08 01:19:28;;;;;;;24.33;10.60;;;11.70;1.00;;;;;;5057467;28;20931;-70
2023/06/08 01:22:05;;;;;;;20.53;10.53;;;11.60;1.00;;;;;;5072880;28;20378;-73
2023/06/08 01:24:35;;;;;;;19.60;10.97;;;11.60;1.00;;;;;;5074031;28;20442;-70
2023/06/08 01:27:06;;;;;;;24.97;10.67;;;11.70;1.00;;;;;;5074764;28;20396;-72
2023/06/08 01:29:33;;;;;;;12.40;9.30;;;11.70;1.00;;;;;;5074230;28;20961;-70
2023/06/08 01:31:59;;;;;;;13.70;9.97;;;11.80;1.00;;;;;;5071820;28;20934;-69
2023/06/08 01:34:26;;;;;;;19.50;9.77;;;11.80;1.00;;;;;;5072694;28;20749;-72
2023/06/08 01:37:06;;;;;;;15.97;9.93;;;11.80;1.00;;;;;;5074450;28;20351;-72
2023/06/08 01:39:52;;;;;;;15.90;10.43;;;11.70;1.00;;;;;;5074494;28;20462;-72
2023/06/08 01:42:20;;;;;;;15.63;9.87;;;11.60;1.00;;;;;;5073404;28;20397;-68
2023/06/08 01:44:54;;;;;;;17.07;10.70;;;11.60;1.00;;;;;;5074188;28;20441;-69
2023/06/08 01:47:22;;;;;;;21.10;10.93;;;11.80;1.00;;;;;;5071381;28;20945;-72
2023/06/08 01:49:48;;;;;;;14.00;9.60;;;11.80;1.00;;;;;;5058066;28;20435;-74
2023/06/08 01:52:14;;;;;;;36.07;11.00;;;11.80;1.00;;;;;;5053073;28;20542;-69
2023/06/08 01:54:40;;;;;;;20.40;11.40;;;11.80;1.00;;;;;;5054118;28;20418;-72
2023/06/08 01:57:06;;;;;;;19.87;10.97;;;11.90;1.00;;;;;;5054206;28;20755;-71
2023/06/08 01:59:32;;;;;;;24.00;12.33;;;11.80;1.00;;;;;;5054007;28;20368;-69
2023/06/08 02:01:58;;;;;;;28.00;11.70;;;11.80;1.00;;;;;;5064941;28;20729;-73
2023/06/08 02:04:23;;;;;;;15.90;10.60;;;11.80;1.00;;;;;;5073176;28;20220;-73
2023/06/08 02:06:49;;;;;;;20.00;11.50;;;11.70;1.00;;;;;;5056670;28;20178;-69
2023/06/08 02:09:15;;;;;;;17.07;11.73;;;11.60;1.00;;;;;;5053161;28;20170;-69
2023/06/08 02:11:40;;;;;;;27.90;11.17;;;11.70;6.50;;;;;;5051952;28;20672;-68
2023/06/08 02:14:06;;;;;;;23.77;11.20;;;11.70;14.60;;;;;;5064058;28;20208;-69
2023/06/08 02:16:33;;;;;;;15.43;11.03;;;11.70;25.30;;;;;;5071888;28;20178;-72
2023/06/08 02:18:59;;;;;;;17.37;11.80;;;11.70;37.70;;;;;;5073781;28;20155;-73
2023/06/08 02:21:25;;;;;;;17.20;11.57;;;11.80;57.10;;;;;;5051737;28;20429;-73
2023/06/08 02:23:51;;;;;;;19.63;11.30;;;11.70;61.20;;;;;;5053705;28;20417;-72
2023/06/08 02:26:16;;;;;;;25.00;12.00;;;11.70;65.20;;;;;;5053004;28;20163;-69
2023/06/08 02:28:42;;;;;;;20.33;11.50;;;11.60;61.50;;;;;;5060612;28;20407;-69
2023/06/08 02:31:08;;;;;;;17.80;10.10;;;11.60;64.70;;;;;;5072692;28;20177;-72
2023/06/08 02:33:33;;;;;;;23.70;11.27;;;11.60;74.30;;;;;;5072991;28;20284;-72
2023/06/08 02:36:00;;;;;;;31.93;12.20;;;11.60;91.10;;;;;;5053465;28;20167;-68
2023/06/08 02:38:26;;;;;;;22.07;12.27;;;11.50;88.60;;;;;;5071735;28;20228;-68
2023/06/08 02:40:52;;;;;;;15.87;10.37;;;11.50;92.60;;;;;;5072510;28;20895;-73
2023/06/08 02:43:19;;;;;;;17.20;11.40;;;11.60;92.70;;;;;;5071566;28;20426;-69
2023/06/08 02:45:45;;;;;;;20.47;12.83;;;11.50;92.80;;;;;;5073420;28;20155;-69
2023/06/08 02:48:10;;;;;;;19.53;13.10;;;11.50;94.00;;;;;;5073294;28;20437;-72
2023/06/08 02:50:36;;;;;;;20.03;12.30;;;11.40;92.50;;;;;;5071591;28;20244;-71
2023/06/08 02:53:02;;;;;;;19.83;12.27;;;11.40;97.80;;;;;;5073219;28;20232;-71
2023/06/08 02:55:34;;;;;;;24.20;13.73;;;11.40;99.90;;;;;;5073147;28;20208;-69
2023/06/08 02:58:02;;;;;;;20.10;13.90;;;11.40;98.70;;;;;;5071454;28;20403;-68
2023/06/08 03:00:29;;;;;;;24.07;14.80;;;11.30;96.40;;;;;;5071801;28;20758;-72
2023/06/08 03:02:58;;;;;;;28.10;14.30;;;11.30;94.20;;;;;;5073094;28;20403;-73
2023/06/08 03:05:24;;;;;;;25.60;15.07;;;11.20;96.60;;;;;;5071450;28;20420;-69
2023/06/08 03:07:52;;;;;;;26.57;13.80;;;11.20;98.30;;;;;;5073127;28;20390;-68
2023/06/08 03:10:18;;;;;;;19.13;13.03;;;11.20;95.00;;;;;;5070076;28;20173;-72
2023/06/08 03:12:44;;;;;;;21.53;13.43;;;11.10;92.40;;;;;;5072859;28;20852;-69
2023/06/08 03:15:10;;;;;;;36.77;12.77;;;11.10;92.40;;;;;;5053158;28;20390;-68
2023/06/08 03:17:36;;;;;;;19.40;12.20;;;11.10;92.40;;;;;;5051001;28;20631;-69
2023/06/08 03:20:05;;;;;;;21.83;12.77;;;11.20;96.90;;;;;;5052627;28;20380;-73
2023/06/08 03:22:32;;;;;;;25.47;12.77;;;11.30;98.80;;;;;;5052936;28;20246;-72
2023/06/08 03:24:58;;;;;;;20.60;12.37;;;11.40;97.70;;;;;;5052951;28;20388;-68
2023/06/08 03:27:24;;;;;;;17.70;12.43;;;11.30;92.50;;;;;;5072889;28;20387;-69
2023/06/08 03:29:50;;;;;;;22.17;12.03;;;11.40;92.50;;;;;;5053417;28;20406;-69
2023/06/08 03:32:16;;;;;;;18.97;11.97;;;11.40;92.50;;;;;;5052019;28;20191;-68
2023/06/08 03:34:44;;;;;;;17.30;11.57;;;11.40;91.70;;;;;;5052512;28;20805;-72
2023/06/08 03:37:10;;;;;;;22.30;11.10;;;11.40;63.20;;;;;;5052470;28;20163;-72
2023/06/08 03:39:36;;;;;;;18.23;12.00;;;11.30;42.70;;;;;;5060015;28;20414;-69
2023/06/08 03:42:01;;;;;;;21.50;11.47;;;11.20;19.60;;;;;;5068075;28;20171;-69
2023/06/08 03:44:27;;;;;;;15.10;11.10;;;11.00;1.00;;;;;;5056666;28;20237;-68
2023/06/08 03:46:53;;;;;;;23.17;12.20;;;10.90;1.00;;;;;;5056634;28;20800;-72
2023/06/08 03:49:18;;;;;;;18.33;11.80;;;10.90;1.00;;;;;;5075100;28;20178;-71
2023/06/08 03:51:44;;;;;;;15.83;12.10;;;10.90;2.80;;;;;;5074329;28;20190;-70
2023/06/08 03:54:10;;;;;;;21.53;11.80;;;11.00;11.40;;;;;;5076306;28;20183;-67
2023/06/08 03:56:36;;;;;;;27.17;12.63;;;11.10;20.10;;;;;;5073425;28;20399;-71
2023/06/08 03:59:02;;;;;;;20.87;13.03;;;11.20;18.60;;;;;;5076583;28;20178;-72
2023/06/08 04:01:30;;;;;;;20.67;12.10;;;11.30;16.00;;;;;;5075466;28;20670;-72
2023/06/08 04:03:55;;;;;;;19.00;11.40;;;11.20;3.70;;;;;;5075868;28;20464;-72
2023/06/08 04:06:23;;;;;;;28.60;13.03;;;11.30;3.40;;;;;;5076318;28;20396;-68
2023/06/08 04:08:50;;;;;;;24.97;13.20;;;11.30;2.20;;;;;;5076235;28;20645;-69
2023/06/08 04:11:16;;;;;;;22.13;13.33;;;11.40;3.60;;;;;;5060618;28;20432;-70
2023/06/08 04:13:42;;;;;;;18.67;12.63;;;11.40;3.80;;;;;;5054572;28;20507;-69
2023/06/08 04:16:09;;;;;;;20.53;12.17;;;11.50;1.00;;;;;;5056373;28;20175;-69
2023/06/08 04:18:40;;;;;;;21.37;13.30;;;11.50;1.00;;;;;;5054784;28;20936;-69
2023/06/08 04:21:06;;;;;;;17.27;10.30;;;11.50;1.00;;;;;;5055246;28;20932;-72
2023/06/08 04:23:36;;;;;;;20.73;11.50;;;11.30;1.00;;;;;;5055754;28;20428;-70
2023/06/08 04:26:08;;;;;;;22.27;11.00;;;11.30;1.00;;;;;;5056024;28;20402;-72
2023/06/08 04:28:34;;;;;;;20.63;11.50;;;11.30;1.00;;;;;;5054853;28;20452;-68
2023/06/08 04:31:01;;;;;;;21.93;11.17;;;11.40;1.00;;;;;;5056553;28;20433;-72
2023/06/08 04:33:31;;;;;;;15.47;10.00;;;11.50;1.00;;;;;;5075131;28;20459;-68
2023/06/08 04:35:57;;;;;;;19.47;10.37;;;11.50;1.00;;;;;;5075677;28;20466;-72
2023/06/08 04:38:22;;;;;;;16.90;10.60;;;11.50;1.00;;;;;;5075657;28;20961;-72
2023/06/08 04:40:53;;;;;;;22.00;12.93;;;11.60;1.00;;;;;;5073862;28;20249;-72
2023/06/08 04:43:25;;;;;;;20.57;11.27;;;11.60;1.00;;;;;;5075402;28;20550;-68
2023/06/08 04:46:00;;;;;;;27.53;12.37;;;11.40;1.00;;;;;;5071640;28;20428;-69
2023/06/08 04:48:27;;;;;;;21.97;11.90;;;11.40;1.00;;;;;;5068005;28;20436;-68
2023/06/08 04:50:59;;;;;;;18.40;10.63;;;11.30;1.00;;;;;;5074022;28;20384;-72
2023/06/08 04:53:25;;;;;;;23.57;12.80;;;11.20;1.00;;;;;;5073552;28;20447;-68
2023/06/08 04:55:57;;;;;;;13.70;10.83;;;11.30;1.00;;;;;;5074815;28;20426;-69
2023/06/08 04:58:23;;;;;;;18.67;11.50;;;11.40;1.00;;;;;;5075423;28;20420;-71
2023/06/08 05:00:49;;;;;;;24.10;11.67;;;11.30;1.00;;;;;;5072962;28;20946;-71
2023/06/08 05:03:15;;;;;;;18.63;11.10;;;11.40;1.00;;;;;;5073936;28;20553;-73
2023/06/08 05:05:42;;;;;;;20.20;11.20;;;11.50;1.00;;;;;;5075381;28;20737;-72
2023/06/08 05:08:08;;;;;;;18.37;10.70;;;11.60;1.00;;;;;;5075171;28;20167;-68
2023/06/08 05:10:33;;;;;;;22.23;12.47;;;11.60;1.00;;;;;;5073534;28;20732;-70
2023/06/08 05:12:59;;;;;;;22.40;10.20;;;11.40;1.00;;;;;;5074827;28;20686;-72
2023/06/08 05:15:26;;;;;;;19.53;11.40;;;11.20;1.00;;;;;;5074288;28;20170;-68
2023/06/08 05:17:52;;;;;;;16.80;11.10;;;11.30;1.00;;;;;;5073374;28;20399;-72
2023/06/08 05:20:19;;;;;;;18.63;10.50;;;11.20;1.00;;;;;;5074023;28;20491;-69
2023/06/08 05:22:45;;;;;;;20.17;9.80;;;11.20;1.00;;;;;;5074692;28;20880;-69
2023/06/08 05:25:10;;;;;;;17.47;10.50;;;11.30;1.00;;;;;;5073871;28;20466;-70
2023/06/08 05:27:37;;;;;;;19.93;11.03;;;11.50;1.00;;;;;;5072629;28;20186;-71
2023/06/08 05:30:03;;;;;;;22.70;10.90;;;11.40;1.00;;;;;;5074432;28;20531;-69
2023/06/08 05:32:29;;;;;;;16.90;10.73;;;11.40;1.00;;;;;;5073313;28;20442;-69
2023/06/08 05:34:55;;;;;;;20.50;11.43;;;11.40;1.00;;;;;;5074601;28;20436;-70
2023/06/08 05:37:20;;;;;;;18.43;11.67;;;11.40;1.00;;;;;;5074592;28;20279;-71
2023/06/08 05:39:46;;;;;;;17.53;10.30;;;11.30;1.00;;;;;;5074603;28;20618;-68
2023/06/08 05:42:12;;;;;;;18.00;11.53;;;11.40;1.00;;;;;;5058787;28;20179;-67
2023/06/08 05:44:38;;;;;;;13.87;9.60;;;11.40;1.00;;;;;;5052390;28;20567;-67
2023/06/08 05:47:04;;;;;;;17.20;11.83;;;11.50;1.00;;;;;;5068142;28;20185;-67
2023/06/08 05:49:29;;;;;;;20.83;11.87;;;11.60;1.00;;;;;;5074247;28;20203;-70
2023/06/08 05:51:55;;;;;;;28.17;10.93;;;11.60;1.00;;;;;;5073312;28;20448;-69
2023/06/08 05:54:21;;;;;;;23.70;12.37;;;11.70;1.00;;;;;;5074287;28;20651;-67
2023/06/08 05:56:47;;;;;;;17.87;12.63;;;11.80;1.00;;;;;;5073089;28;20189;-69
2023/06/08 05:59:12;;;;;;;19.87;11.63;;;12.00;1.00;;;;;;5074035;28;20667;-68
2023/06/08 06:01:38;;;;;;;17.97;9.90;;;12.10;1.00;;;;;;5071429;28;20182;-67
2023/06/08 06:04:04;;;;;;;17.87;10.60;;;12.20;1.00;;;;;;5070746;28;20651;-67
2023/06/08 06:06:32;;;;;;;19.23;10.80;;;12.30;1.00;;;;;;5073855;28;20174;-67
2023/06/08 06:08:58;;;;;;;16.80;10.20;;;12.20;1.00;;;;;;5073906;28;20209;-69
2023/06/08 06:11:23;;;;;;;16.90;9.60;;;12.20;1.00;;;;;;5055229;28;20461;-69
2023/06/08 06:13:49;;;;;;;16.53;10.40;;;12.20;1.00;;;;;;5053810;28;20543;-69
2023/06/08 06:16:15;;;;;;;18.93;10.10;;;12.20;1.00;;;;;;5070279;28;20174;-67
2023/06/08 06:18:40;;;;;;;14.80;9.77;;;12.20;1.00;;;;;;5073736;28;20173;-68
2023/06/08 06:21:06;;;;;;;13.80;9.40;;;12.30;1.00;;;;;;5072219;28;20598;-66
2023/06/08 06:23:32;;;;;;;11.57;9.53;;;12.40;1.00;;;;;;5073636;28;20713;-68
2023/06/08 06:25:57;;;;;;;15.30;9.53;;;12.40;1.00;;;;;;5072049;28;20201;-68
2023/06/08 06:28:23;;;;;;;19.23;9.97;;;12.30;1.00;;;;;;5073559;28;20185;-68
2023/06/08 06:30:49;;;;;;;14.70;9.63;;;12.30;1.00;;;;;;5071708;28;20192;-68
2023/06/08 06:33:15;;;;;;;23.43;9.97;;;12.40;1.00;;;;;;5073320;28;21002;-69
2023/06/08 06:35:42;;;;;;;16.20;9.37;;;12.50;1.00;;;;;;5073570;28;20166;-71
2023/06/08 06:38:08;;;;;;;15.27;9.10;;;12.60;1.00;;;;;;5071927;28;20437;-71
2023/06/08 06:40:33;;;;;;;15.70;10.20;;;12.70;1.00;;;;;;5071412;28;20408;-71
2023/06/08 06:42:59;;;;;;;24.40;10.10;;;12.70;1.00;;;;;;5063182;28;20605;-72
2023/06/08 06:45:25;;;;;;;17.53;8.83;;;12.80;1.00;;;;;;5054924;28;20611;-70
2023/06/08 06:47:51;;;;;;;17.43;9.07;;;12.90;1.00;;;;;;5052743;28;20175;-68
2023/06/08 06:50:16;;;;;;;10.23;8.40;;;13.00;1.00;;;;;;5065638;28;20586;-67
2023/06/08 06:52:42;;;;;;;19.60;9.17;;;13.10;1.00;;;;;;5060644;28;20275;-68
2023/06/08 06:55:08;;;;;;;13.70;8.27;;;13.10;1.00;;;;;;5072647;28;20568;-68
2023/06/08 06:57:35;;;;;;;19.40;9.00;;;13.20;1.00;;;;;;5069916;28;20538;-67
2023/06/08 07:00:07;;;;;;;14.37;8.73;;;13.30;1.00;;;;;;5071390;28;20178;-66
2023/06/08 07:02:33;;;;;;;16.30;10.00;;;13.40;1.00;;;;;;5073075;28;20479;-68
2023/06/08 07:05:04;;;;;;;15.57;8.30;;;13.50;1.00;;;;;;5072784;28;20466;-71
2023/06/08 07:07:30;;;;;;;18.77;10.10;;;13.60;1.00;;;;;;5073078;28;20483;-67
2023/06/08 07:09:56;;;;;;;14.30;9.63;;;13.70;1.00;;;;;;5072837;28;20419;-68
2023/06/08 07:12:21;;;;;;;18.40;8.83;;;13.80;1.00;;;;;;5069646;28;20464;-67
2023/06/08 07:14:47;;;;;;;18.13;8.37;;;13.90;1.00;;;;;;5071120;28;20217;-67
2023/06/08 07:17:14;;;;;;;21.53;8.37;;;13.90;1.00;;;;;;5071053;28;20183;-68
2023/06/08 07:19:41;;;;;;;11.70;8.30;;;13.80;1.00;;;;;;5072179;28;20631;-67
2023/06/08 07:22:07;;;;;;;8.80;8.00;;;13.90;1.00;;;;;;5052059;28;20910;-67
2023/06/08 07:24:33;;;;;;;19.57;7.70;;;14.00;1.00;;;;;;5052819;28;20504;-67
2023/06/08 07:26:59;;;;;;;8.47;7.10;;;14.00;1.00;;;;;;5071638;28;20190;-66
2023/06/08 07:29:24;;;;;;;12.57;7.10;;;14.10;1.00;;;;;;5072947;28;20877;-67
2023/06/08 07:31:50;;;;;;;14.00;8.87;;;14.30;1.00;;;;;;5071343;28;20512;-67
2023/06/08 07:34:16;;;;;;;19.60;7.97;;;14.40;1.00;;;;;;5072023;28;20197;-68
2023/06/08 07:36:42;;;;;;;11.50;7.50;;;14.50;1.00;;;;;;5072849;28;20178;-66
2023/06/08 07:39:08;;;;;;;12.50;7.57;;;14.60;1.00;;;;;;5071941;28;20204;-66
2023/06/08 07:41:34;;;;;;;10.60;7.10;;;14.70;1.00;;;;;;5071864;28;20392;-68
2023/06/08 07:44:01;;;;;;;20.13;6.70;;;14.70;1.00;;;;;;5072536;28;20474;-66
2023/06/08 07:46:27;;;;;;;13.70;7.27;;;14.80;1.00;;;;;;5072342;28;20420;-67
2023/06/08 07:48:53;;;;;;;11.20;6.50;;;14.80;1.00;;;;;;5072693;28;20766;-68
2023/06/08 07:51:18;;;;;;;12.03;7.30;;;14.90;1.00;;;;;;5071623;28;20493;-68
2023/06/08 07:53:44;;;;;;;17.63;8.07;;;14.90;1.00;;;;;;5069395;28;20202;-67
2023/06/08 07:56:10;;;;;;;18.73;8.43;;;15.00;99.90;;;;;;5072592;28;20163;-67
2023/06/08 07:58:36;;;;;;;13.30;7.67;;;14.90;99.90;;;;;;5072605;28;20167;-67
2023/06/08 08:01:02;;;;;;;12.67;7.83;;;15.00;99.90;;;;;;5071713;28;20759;-68
2023/06/08 08:03:29;;;;;;;11.33;7.53;;;15.00;99.90;;;;;;5072034;28;20220;-67
2023/06/08 08:05:55;;;;;;;10.23;7.80;;;15.10;99.90;;;;;;5072415;28;20408;-67
2023/06/08 08:08:21;;;;;;;12.00;8.37;;;15.10;99.90;;;;;;5071461;28;20468;-68
2023/06/08 08:10:47;;;;;;;9.50;7.57;;;15.20;99.90;;;;;;5071175;28;20908;-68
2023/06/08 08:13:13;;;;;;;11.80;6.70;;;15.20;99.90;;;;;;5072208;28;20198;-67
2023/06/08 08:15:42;;;;;;;10.10;6.70;;;15.30;99.90;;;;;;5055852;28;20825;-67
2023/06/08 08:18:08;;;;;;;12.03;7.77;;;15.40;99.90;;;;;;5052359;28;20258;-68
2023/06/08 08:20:33;;;;;;;12.90;7.57;;;15.60;99.90;;;;;;5055768;28;20452;-67
2023/06/08 08:22:59;;;;;;;22.50;9.20;;;15.60;99.90;;;;;;5072022;28;20194;-67
2023/06/08 08:25:25;;;;;;;11.97;8.17;;;15.80;99.90;;;;;;5071768;28;20175;-67
2023/06/08 08:27:51;;;;;;;12.90;7.23;;;16.00;99.90;;;;;;5070484;28;20444;-67
2023/06/08 08:30:17;;;;;;;11.50;8.20;;;16.10;99.90;;;;;;5074453;28;20263;-67
2023/06/08 08:32:42;;;;;;;16.70;8.43;;;16.10;99.90;;;;;;5075798;28;20202;-67
2023/06/08 08:35:10;;;;;;;12.57;7.27;;;16.20;99.90;;;;;;5074967;28;20182;-67
2023/06/08 08:37:36;;;;;;;11.13;8.27;;;16.20;99.90;;;;;;5075720;28;20158;-68
2023/06/08 08:40:02;;;;;;;13.50;8.23;;;16.40;99.90;;;;;;5074125;28;20400;-67
2023/06/08 08:42:30;;;;;;;14.70;7.20;;;16.50;99.90;;;;;;5074472;28;20431;-67
2023/06/08 08:45:00;;;;;;;16.40;7.43;;;16.70;99.90;;;;;;5060788;28;20437;-68
2023/06/08 08:47:29;;;;;;;14.70;7.70;;;16.90;99.90;;;;;;5056426;28;20421;-67
2023/06/08 08:50:04;;;;;;;14.70;6.50;;;17.10;99.90;;;;;;5075124;28;20401;-68
2023/06/08 08:52:33;;;;;;;9.37;6.90;;;17.30;99.90;;;;;;5073705;28;20451;-66
2023/06/08 08:55:03;;;;;;;18.27;8.20;;;17.50;99.90;;;;;;5075281;28;20446;-66
2023/06/08 08:57:29;;;;;;;14.67;10.37;;;17.50;99.90;;;;;;5074262;28;20444;-68
2023/06/08 08:59:55;;;;;;;10.63;7.43;;;17.70;99.90;;;;;;5074919;28;20897;-69
2023/06/08 09:02:21;;;;;;;12.33;7.20;;;17.90;99.90;;;;;;5073239;28;20497;-68
2023/06/08 09:04:47;;;;;;;13.97;7.77;;;18.00;99.90;;;;;;5075257;28;20454;-67
2023/06/08 09:07:20;;;;;;;15.27;7.33;;;18.20;99.90;;;;;;5075195;28;20401;-66
2023/06/08 09:10:22;;;;;;;12.90;7.20;;;18.40;99.90;;;;;;5075141;28;20508;-68
2023/06/08 09:12:53;;;;;;;16.30;7.73;;;18.60;99.90;;;;;;5074917;28;20460;-67
2023/06/08 09:15:34;;;;;;;14.33;7.50;;;18.80;99.90;;;;;;5074169;28;20490;-66
2023/06/08 09:18:15;;;;;;;13.83;8.23;;;18.50;99.90;;;;;;5075059;28;20885;-66
2023/06/08 09:20:41;;;;;;;13.33;7.90;;;18.70;99.90;;;;;;5073666;28;20843;-69
2023/06/08 09:23:24;;;;;;;9.53;7.47;;;18.80;99.90;;;;;;5073217;28;20486;-67
2023/06/08 09:25:51;;;;;;;15.33;7.80;;;19.10;99.90;;;;;;5074898;28;20216;-67
2023/06/08 09:28:28;;;;;;;8.37;6.60;;;19.20;99.90;;;;;;5073417;28;20408;-68
2023/06/08 09:30:59;;;;;;;14.93;7.40;;;19.50;99.90;;;;;;5053767;28;20415;-68
2023/06/08 09:33:27;;;;;;;14.30;7.50;;;19.80;99.90;;;;;;5054482;28;20495;-69
2023/06/08 09:35:59;;;;;;;14.57;7.77;;;20.00;99.90;;;;;;5073040;28;20425;-68
2023/06/08 09:38:27;;;;;;;30.47;7.47;;;20.00;99.90;;;;;;5073160;28;20432;-67
2023/06/08 09:41:25;;;;;;;16.73;7.63;;;20.20;99.90;;;;;;5072995;28;20400;-69
2023/06/08 09:43:51;;;;;;;17.30;8.30;;;20.40;99.90;;;;;;5050435;28;20468;-67
2023/06/08 09:46:38;;;;;;;15.30;6.87;;;20.80;99.90;;;;;;5072437;28;20434;-68
2023/06/08 09:49:06;;;;;;;12.07;7.10;;;21.20;99.90;;;;;;5074294;28;20404;-69
2023/06/08 09:51:37;;;;;;;14.73;7.83;;;21.50;99.90;;;;;;5073335;28;20400;-67
2023/06/08 09:54:04;;;;;;;12.00;6.90;;;21.80;99.90;;;;;;5073959;28;20852;-67
2023/06/08 09:56:30;;;;;;;10.07;6.73;;;22.30;99.90;;;;;;5068415;28;20448;-67
2023/06/08 09:59:02;;;;;;;7.93;5.70;;;22.80;99.90;;;;;;5073905;28;20432;-66
2023/06/08 10:01:40;;;;;;;9.70;6.03;;;22.90;99.90;;;;;;5073365;28;20408;-69
2023/06/08 10:04:20;;;;;;;7.03;5.53;;;22.90;99.90;;;;;;5073779;28;20940;-68
2023/06/08 10:06:51;;;;;;;6.87;6.03;;;23.40;99.90;;;;;;5074028;28;20765;-70
2023/06/08 10:09:21;;;;;;;11.83;6.23;;;24.00;99.90;;;;;;5071739;28;20508;-69
2023/06/08 10:11:47;;;;;;;9.10;5.83;;;24.30;99.90;;;;;;5051924;28;20429;-71
2023/06/08 10:14:14;;;;;;;10.10;5.97;;;24.40;99.90;;;;;;5053247;28;20921;-69
2023/06/08 10:16:41;;;;;;;8.83;5.73;;;24.60;99.90;;;;;;5063301;28;20435;-72
2023/06/08 10:19:07;;;;;;;9.40;5.80;;;24.80;99.90;;;;;;5072775;28;20840;-71
2023/06/08 10:21:33;;;;;;;8.23;5.97;;;24.50;99.90;;;;;;5072898;28;20401;-70
2023/06/08 10:24:00;;;;;;;6.67;5.73;;;24.80;99.90;;;;;;5073601;28;20746;-72
2023/06/08 10:26:27;;;;;;;9.13;5.90;;;25.10;99.90;;;;;;5073775;28;20722;-71
2023/06/08 10:29:08;;;;;;;7.90;5.43;;;25.30;99.90;;;;;;5073581;28;20761;-72
2023/06/08 10:31:39;;;;;;;5.60;4.60;;;25.60;99.90;;;;;;5064492;28;20456;-71
2023/06/08 10:34:08;;;;;;;10.53;5.43;;;25.80;99.90;;;;;;5072572;28;20454;-72
2023/06/08 10:36:36;;;;;;;8.43;5.70;;;26.10;99.90;;;;;;5073479;28;20404;-71
2023/06/08 10:39:07;;;;;;;7.27;5.03;;;25.70;99.90;;;;;;5073401;28;20392;-71
2023/06/08 10:42:02;;;;;;;9.37;6.00;;;25.70;99.90;;;;;;5072578;28;20404;-73
2023/06/08 10:44:40;;;;;;;8.43;4.83;;;26.40;99.90;;;;;;5064137;28;20464;-70
2023/06/08 10:47:07;;;;;;;5.33;4.60;;;26.60;99.90;;;;;;5071920;28;20436;-73
2023/06/08 10:49:37;;;;;;;7.93;5.40;;;26.90;99.90;;;;;;5072791;28;20427;-70
2023/06/08 10:52:09;;;;;;;6.10;5.47;;;27.30;99.90;;;;;;5071392;28;20460;-71
2023/06/08 10:54:53;;;;;;;8.33;4.30;;;27.40;99.90;;;;;;5073138;28;20420;-70
2023/06/08 10:57:54;;;;;;;5.83;5.30;;;27.40;99.90;;;;;;5073090;28;20400;-71
2023/06/08 11:00:25;;;;;;;8.70;5.57;;;27.30;99.90;;;;;;5023086;28;20438;-73
2023/06/08 11:03:04;;;;;;;6.03;4.63;;;27.10;99.90;;;;;;5041795;28;20445;-73
2023/06/08 11:05:32;;;;;;;6.10;4.80;;;27.50;99.90;;;;;;5052844;28;20420;-71
2023/06/08 11:07:59;;;;;;;5.93;4.43;;;28.00;99.90;;;;;;5059482;28;20436;-70
2023/06/08 11:10:26;;;;;;;5.27;4.77;;;28.30;99.90;;;;;;5070405;28;20457;-74
2023/06/08 11:12:51;;;;;;;8.50;5.87;;;28.40;99.90;;;;;;5070873;28;20879;-71
2023/06/08 11:15:18;;;;;;;7.87;5.70;;;28.70;99.90;;;;;;5072928;28;20416;-73
2023/06/08 11:17:50;;;;;;;8.50;5.43;;;28.60;99.90;;;;;;5072916;28;20220;-72
2023/06/08 11:20:17;;;;;;;7.07;5.30;;;28.40;99.90;;;;;;5065924;28;20472;-73
2023/06/08 11:22:43;;;;;;;6.70;5.13;;;28.80;99.90;;;;;;5052821;28;20401;-72
2023/06/08 11:25:09;;;;;;;7.20;4.87;;;29.10;99.90;;;;;;5051534;28;20824;-72
2023/06/08 11:27:44;;;;;;;8.53;4.67;;;29.30;99.90;;;;;;5062002;28;20428;-72
2023/06/08 11:30:20;;;;;;;7.93;4.73;;;29.70;99.90;;;;;;5071988;28;20439;-72
2023/06/08 11:32:50;;;;;;;12.73;5.03;;;30.30;99.90;;;;;;5071605;28;20458;-73
2023/06/08 11:35:20;;;;;;;6.97;4.80;;;30.40;99.90;;;;;;5072507;28;20901;-73
2023/06/08 11:37:49;;;;;;;11.60;4.27;;;30.80;99.90;;;;;;5072696;28;20400;-73
2023/06/08 11:40:15;;;;;;;5.30;4.80;;;31.10;99.90;;;;;;5070945;28;20524;-72
2023/06/08 11:42:42;;;;;;;6.93;5.10;;;30.50;99.90;;;;;;5072333;28;20424;-72
2023/06/08 11:45:09;;;;;;;7.10;4.10;;;30.30;99.90;;;;;;5072342;28;20434;-73
2023/06/08 11:47:35;;;;;;;8.27;5.00;;;30.20;99.90;;;;;;5072305;28;20401;-73
2023/06/08 11:50:03;;;;;;;6.33;5.23;;;29.50;99.90;;;;;;5070179;28;20450;-73
2023/06/08 11:52:33;;;;;;;5.73;4.30;;;30.00;99.90;;;;;;5071849;28;20448;-71
2023/06/08 11:55:04;;;;;;;5.20;4.27;;;30.70;99.90;;;;;;5064428;28;20428;-73
2023/06/08 11:57:49;;;;;;;6.77;4.63;;;30.60;99.90;;;;;;5052532;28;20484;-73
2023/06/08 12:00:16;;;;;;;5.27;4.77;;;30.00;99.90;;;;;;5050476;28;20774;-73
2023/06/08 12:02:45;;;;;;;8.20;5.10;;;29.70;99.90;;;;;;5057566;28;20447;-71
2023/06/08 12:05:19;;;;;;;5.90;5.27;;;30.30;99.90;;;;;;5075870;28;20418;-73
2023/06/08 12:07:57;;;;;;;7.80;4.90;;;30.80;99.90;;;;;;5075808;28;20416;-73
2023/06/08 12:10:30;;;;;;;7.77;4.80;;;31.40;99.90;;;;;;5075402;28;20396;-73
2023/06/08 12:12:56;;;;;;;7.70;4.33;;;32.10;99.90;;;;;;5076085;28;20456;-72
2023/06/08 12:15:22;;;;;;;7.13;4.37;;;32.20;99.90;;;;;;5074389;28;20470;-74
2023/06/08 12:17:47;;;;;;;8.33;5.60;;;32.60;99.90;;;;;;5075293;28;20510;-74
2023/06/08 12:20:17;;;;;;;9.57;4.90;;;32.80;99.90;;;;;;5074532;28;20650;-74
2023/06/08 12:22:43;;;;;;;5.70;4.63;;;32.50;99.90;;;;;;5075918;28;20170;-73
2023/06/08 12:25:09;;;;;;;11.03;4.53;;;32.70;99.90;;;;;;5074925;28;20408;-74
2023/06/08 12:27:39;;;;;;;4.63;4.23;;;32.80;99.90;;;;;;5074114;28;20553;-73
2023/06/08 12:30:12;;;;;;;10.83;6.70;;;32.90;99.90;;;;;;5072312;28;20539;-75
2023/06/08 12:32:38;;;;;;;7.80;4.83;;;32.50;99.90;;;;;;5055583;28;20456;-71
2023/06/08 12:35:04;;;;;;;6.00;4.93;;;32.30;99.90;;;;;;5071866;28;20432;-74
2023/06/08 12:37:30;;;;;;;11.30;5.73;;;31.90;99.90;;;;;;5075818;28;20799;-73
2023/06/08 12:39:56;;;;;;;6.40;5.57;;;31.30;99.90;;;;;;5075402;28;20404;-73
2023/06/08 12:42:22;;;;;;;8.63;5.53;;;30.40;99.90;;;;;;5073027;28;20194;-73
2023/06/08 12:44:48;;;;;;;8.27;5.67;;;29.80;99.90;;;;;;5055168;28;20268;-73